sensor_id;sensor_type;location;lat;lon;timestamp;P1;durP1;ratioP1;P2;durP2;ratioP2
21727;SDS011;11026;50.560;17.852;2023-11-21T00:00:54;7.55;;;4.70;;
21727;SDS011;11026;50.560;17.852;2023-11-21T00:03:21;7.45;;;4.57;;
21727;SDS011;11026;50.560;17.852;2023-11-21T00:05:51;8.68;;;4.90;;
21727;SDS011;11026;50.560;17.852;2023-11-21T00:08:20;8.95;;;4.70;;
21727;SDS011;11026;50.560;17.852;2023-11-21T00:10:48;7.70;;;4.43;;
21727;SDS011;11026;50.560;17.852;2023-11-21T00:13:15;9.20;;;5.00;;
21727;SDS011;11026;50.560;17.852;2023-11-21T00:15:44;8.23;;;5.45;;
21727;SDS011;11026;50.560;17.852;2023-11-21T00:18:11;11.60;;;5.68;;
21727;SDS011;11026;50.560;17.852;2023-11-21T00:20:38;8.20;;;4.90;;
21727;SDS011;11026;50.560;17.852;2023-11-21T00:23:05;8.02;;;5.55;;
21727;SDS011;11026;50.560;17.852;2023-11-21T00:25:32;8.32;;;5.20;;
21727;SDS011;11026;50.560;17.852;2023-11-21T00:28:00;7.80;;;4.50;;
21727;SDS011;11026;50.560;17.852;2023-11-21T00:30:29;6.60;;;4.05;;
21727;SDS011;11026;50.560;17.852;2023-11-21T00:32:57;7.28;;;4.03;;
21727;SDS011;11026;50.560;17.852;2023-11-21T00:35:25;8.73;;;4.35;;
21727;SDS011;11026;50.560;17.852;2023-11-21T00:37:52;8.23;;;4.03;;
21727;SDS011;11026;50.560;17.852;2023-11-21T00:40:19;8.90;;;4.13;;
21727;SDS011;11026;50.560;17.852;2023-11-21T00:42:48;6.60;;;3.72;;
21727;SDS011;11026;50.560;17.852;2023-11-21T00:47:49;6.60;;;3.80;;
21727;SDS011;11026;50.560;17.852;2023-11-21T00:50:18;7.38;;;4.35;;
21727;SDS011;11026;50.560;17.852;2023-11-21T00:52:46;7.78;;;3.75;;
21727;SDS011;11026;50.560;17.852;2023-11-21T00:55:13;9.63;;;4.35;;
21727;SDS011;11026;50.560;17.852;2023-11-21T00:57:41;8.68;;;4.35;;
21727;SDS011;11026;50.560;17.852;2023-11-21T01:00:08;9.35;;;4.40;;
21727;SDS011;11026;50.560;17.852;2023-11-21T01:02:44;6.93;;;3.85;;
21727;SDS011;11026;50.560;17.852;2023-11-21T01:05:13;8.38;;;4.55;;
21727;SDS011;11026;50.560;17.852;2023-11-21T01:07:42;10.38;;;3.85;;
21727;SDS011;11026;50.560;17.852;2023-11-21T01:10:10;7.63;;;4.30;;
21727;SDS011;11026;50.560;17.852;2023-11-21T01:12:37;11.45;;;4.30;;
21727;SDS011;11026;50.560;17.852;2023-11-21T01:15:06;8.40;;;3.90;;
21727;SDS011;11026;50.560;17.852;2023-11-21T01:17:35;10.07;;;4.45;;
21727;SDS011;11026;50.560;17.852;2023-11-21T01:20:02;9.35;;;4.25;;
21727;SDS011;11026;50.560;17.852;2023-11-21T01:22:33;9.18;;;4.18;;
21727;SDS011;11026;50.560;17.852;2023-11-21T01:30:05;8.65;;;4.22;;
21727;SDS011;11026;50.560;17.852;2023-11-21T01:32:34;9.82;;;4.97;;
21727;SDS011;11026;50.560;17.852;2023-11-21T01:35:02;6.63;;;4.13;;
21727;SDS011;11026;50.560;17.852;2023-11-21T01:37:30;10.52;;;4.13;;
21727;SDS011;11026;50.560;17.852;2023-11-21T01:39:58;9.32;;;4.63;;
21727;SDS011;11026;50.560;17.852;2023-11-21T01:42:27;9.95;;;4.63;;
21727;SDS011;11026;50.560;17.852;2023-11-21T01:44:58;11.25;;;4.40;;
21727;SDS011;11026;50.560;17.852;2023-11-21T01:47:27;9.98;;;5.05;;
21727;SDS011;11026;50.560;17.852;2023-11-21T01:49:54;10.98;;;4.75;;
21727;SDS011;11026;50.560;17.852;2023-11-21T01:52:21;12.55;;;4.78;;
21727;SDS011;11026;50.560;17.852;2023-11-21T01:54:49;8.07;;;4.30;;
21727;SDS011;11026;50.560;17.852;2023-11-21T01:57:15;12.82;;;4.90;;
21727;SDS011;11026;50.560;17.852;2023-11-21T01:59:42;12.82;;;5.13;;
21727;SDS011;11026;50.560;17.852;2023-11-21T02:02:11;11.00;;;5.25;;
21727;SDS011;11026;50.560;17.852;2023-11-21T02:04:38;11.75;;;5.50;;
21727;SDS011;11026;50.560;17.852;2023-11-21T02:07:06;9.88;;;5.50;;
21727;SDS011;11026;50.560;17.852;2023-11-21T02:09:34;9.25;;;5.30;;
21727;SDS011;11026;50.560;17.852;2023-11-21T02:12:06;11.02;;;5.03;;
21727;SDS011;11026;50.560;17.852;2023-11-21T02:14:35;9.35;;;5.45;;
21727;SDS011;11026;50.560;17.852;2023-11-21T02:17:04;12.98;;;5.95;;
21727;SDS011;11026;50.560;17.852;2023-11-21T02:19:31;9.80;;;5.03;;
21727;SDS011;11026;50.560;17.852;2023-11-21T02:21:59;13.38;;;5.65;;
21727;SDS011;11026;50.560;17.852;2023-11-21T02:24:30;10.65;;;5.25;;
21727;SDS011;11026;50.560;17.852;2023-11-21T02:26:58;7.88;;;5.35;;
21727;SDS011;11026;50.560;17.852;2023-11-21T02:29:26;10.45;;;5.45;;
21727;SDS011;11026;50.560;17.852;2023-11-21T02:31:58;11.13;;;5.50;;
21727;SDS011;11026;50.560;17.852;2023-11-21T02:34:26;10.90;;;6.35;;
21727;SDS011;11026;50.560;17.852;2023-11-21T02:36:55;11.07;;;6.75;;
21727;SDS011;11026;50.560;17.852;2023-11-21T02:39:24;12.68;;;7.78;;
21727;SDS011;11026;50.560;17.852;2023-11-21T02:41:51;13.25;;;7.22;;
21727;SDS011;11026;50.560;17.852;2023-11-21T02:46:50;10.60;;;6.80;;
21727;SDS011;11026;50.560;17.852;2023-11-21T02:49:19;10.75;;;6.78;;
21727;SDS011;11026;50.560;17.852;2023-11-21T02:51:46;12.02;;;6.45;;
21727;SDS011;11026;50.560;17.852;2023-11-21T02:54:14;11.20;;;6.38;;
21727;SDS011;11026;50.560;17.852;2023-11-21T02:56:47;8.85;;;6.32;;
21727;SDS011;11026;50.560;17.852;2023-11-21T02:59:16;10.13;;;5.45;;
21727;SDS011;11026;50.560;17.852;2023-11-21T03:01:43;10.32;;;6.30;;
21727;SDS011;11026;50.560;17.852;2023-11-21T03:04:11;9.60;;;6.13;;
21727;SDS011;11026;50.560;17.852;2023-11-21T03:06:46;10.68;;;6.35;;
21727;SDS011;11026;50.560;17.852;2023-11-21T03:09:14;9.45;;;6.03;;
21727;SDS011;11026;50.560;17.852;2023-11-21T03:11:45;12.43;;;7.43;;
21727;SDS011;11026;50.560;17.852;2023-11-21T03:14:13;10.35;;;7.05;;
21727;SDS011;11026;50.560;17.852;2023-11-21T03:19:12;11.65;;;7.22;;
21727;SDS011;11026;50.560;17.852;2023-11-21T03:21:39;10.35;;;7.22;;
21727;SDS011;11026;50.560;17.852;2023-11-21T03:24:06;11.32;;;7.53;;
21727;SDS011;11026;50.560;17.852;2023-11-21T03:26:35;12.68;;;7.35;;
21727;SDS011;11026;50.560;17.852;2023-11-21T03:29:04;10.07;;;7.05;;
21727;SDS011;11026;50.560;17.852;2023-11-21T03:31:32;9.35;;;7.00;;
21727;SDS011;11026;50.560;17.852;2023-11-21T03:33:59;12.18;;;6.32;;
21727;SDS011;11026;50.560;17.852;2023-11-21T03:38:57;9.80;;;7.03;;
21727;SDS011;11026;50.560;17.852;2023-11-21T03:41:25;11.38;;;7.15;;
21727;SDS011;11026;50.560;17.852;2023-11-21T03:43:53;8.45;;;6.55;;
21727;SDS011;11026;50.560;17.852;2023-11-21T03:46:21;9.45;;;7.03;;
21727;SDS011;11026;50.560;17.852;2023-11-21T03:48:48;13.25;;;7.80;;
21727;SDS011;11026;50.560;17.852;2023-11-21T03:51:16;12.55;;;9.88;;
21727;SDS011;11026;50.560;17.852;2023-11-21T03:53:43;15.20;;;10.05;;
21727;SDS011;11026;50.560;17.852;2023-11-21T03:56:10;14.85;;;11.30;;
21727;SDS011;11026;50.560;17.852;2023-11-21T03:58:38;10.93;;;8.13;;
21727;SDS011;11026;50.560;17.852;2023-11-21T04:01:06;13.35;;;8.32;;
21727;SDS011;11026;50.560;17.852;2023-11-21T04:03:34;27.58;;;14.55;;
21727;SDS011;11026;50.560;17.852;2023-11-21T04:06:03;45.40;;;21.23;;
21727;SDS011;11026;50.560;17.852;2023-11-21T04:08:31;10.75;;;8.02;;
21727;SDS011;11026;50.560;17.852;2023-11-21T04:11:00;55.90;;;29.23;;
21727;SDS011;11026;50.560;17.852;2023-11-21T04:13:28;10.43;;;7.85;;
21727;SDS011;11026;50.560;17.852;2023-11-21T04:15:55;13.32;;;7.38;;
21727;SDS011;11026;50.560;17.852;2023-11-21T04:18:22;15.82;;;8.75;;
21727;SDS011;11026;50.560;17.852;2023-11-21T04:20:50;13.57;;;8.13;;
21727;SDS011;11026;50.560;17.852;2023-11-21T04:23:18;12.88;;;8.65;;
21727;SDS011;11026;50.560;17.852;2023-11-21T04:25:45;11.57;;;7.88;;
21727;SDS011;11026;50.560;17.852;2023-11-21T04:30:42;11.70;;;8.35;;
21727;SDS011;11026;50.560;17.852;2023-11-21T04:33:10;11.40;;;9.45;;
21727;SDS011;11026;50.560;17.852;2023-11-21T04:35:37;14.23;;;8.00;;
21727;SDS011;11026;50.560;17.852;2023-11-21T04:38:04;12.05;;;8.25;;
21727;SDS011;11026;50.560;17.852;2023-11-21T04:40:31;13.05;;;7.47;;
21727;SDS011;11026;50.560;17.852;2023-11-21T04:42:58;13.50;;;7.35;;
21727;SDS011;11026;50.560;17.852;2023-11-21T04:45:26;14.07;;;8.20;;
21727;SDS011;11026;50.560;17.852;2023-11-21T04:47:55;12.57;;;7.65;;
21727;SDS011;11026;50.560;17.852;2023-11-21T04:50:23;13.23;;;8.23;;
21727;SDS011;11026;50.560;17.852;2023-11-21T04:52:51;14.18;;;8.68;;
21727;SDS011;11026;50.560;17.852;2023-11-21T04:55:18;17.33;;;9.27;;
21727;SDS011;11026;50.560;17.852;2023-11-21T04:57:46;17.10;;;9.35;;
21727;SDS011;11026;50.560;17.852;2023-11-21T05:00:13;13.73;;;9.65;;
21727;SDS011;11026;50.560;17.852;2023-11-21T05:02:42;16.77;;;8.95;;
21727;SDS011;11026;50.560;17.852;2023-11-21T05:05:11;17.30;;;9.38;;
21727;SDS011;11026;50.560;17.852;2023-11-21T05:07:39;13.65;;;10.13;;
21727;SDS011;11026;50.560;17.852;2023-11-21T05:12:39;15.77;;;10.07;;
21727;SDS011;11026;50.560;17.852;2023-11-21T05:15:08;17.70;;;10.73;;
21727;SDS011;11026;50.560;17.852;2023-11-21T05:17:40;15.05;;;10.90;;
21727;SDS011;11026;50.560;17.852;2023-11-21T05:20:14;15.35;;;10.80;;
21727;SDS011;11026;50.560;17.852;2023-11-21T05:27:47;14.93;;;9.95;;
21727;SDS011;11026;50.560;17.852;2023-11-21T05:35:17;12.35;;;8.93;;
21727;SDS011;11026;50.560;17.852;2023-11-21T05:37:45;15.13;;;9.23;;
21727;SDS011;11026;50.560;17.852;2023-11-21T05:40:13;12.68;;;9.85;;
21727;SDS011;11026;50.560;17.852;2023-11-21T05:42:40;14.95;;;7.57;;
21727;SDS011;11026;50.560;17.852;2023-11-21T05:45:09;10.52;;;7.47;;
21727;SDS011;11026;50.560;17.852;2023-11-21T05:47:41;9.88;;;6.72;;
21727;SDS011;11026;50.560;17.852;2023-11-21T05:50:11;11.07;;;6.70;;
21727;SDS011;11026;50.560;17.852;2023-11-21T05:52:44;11.30;;;5.93;;
21727;SDS011;11026;50.560;17.852;2023-11-21T05:55:13;8.80;;;5.72;;
21727;SDS011;11026;50.560;17.852;2023-11-21T05:57:41;7.47;;;5.20;;
21727;SDS011;11026;50.560;17.852;2023-11-21T06:00:11;10.65;;;6.05;;
21727;SDS011;11026;50.560;17.852;2023-11-21T06:02:58;9.20;;;6.32;;
21727;SDS011;11026;50.560;17.852;2023-11-21T06:05:28;9.50;;;5.88;;
21727;SDS011;11026;50.560;17.852;2023-11-21T06:07:55;9.23;;;6.65;;
21727;SDS011;11026;50.560;17.852;2023-11-21T06:10:26;11.55;;;7.22;;
21727;SDS011;11026;50.560;17.852;2023-11-21T06:12:55;11.25;;;7.25;;
21727;SDS011;11026;50.560;17.852;2023-11-21T06:17:59;9.63;;;6.30;;
21727;SDS011;11026;50.560;17.852;2023-11-21T06:20:27;10.93;;;6.13;;
21727;SDS011;11026;50.560;17.852;2023-11-21T06:22:54;10.75;;;7.00;;
21727;SDS011;11026;50.560;17.852;2023-11-21T06:25:23;8.93;;;5.50;;
21727;SDS011;11026;50.560;17.852;2023-11-21T06:27:50;10.15;;;6.57;;
21727;SDS011;11026;50.560;17.852;2023-11-21T06:32:50;7.68;;;6.38;;
21727;SDS011;11026;50.560;17.852;2023-11-21T06:35:20;11.88;;;8.32;;
21727;SDS011;11026;50.560;17.852;2023-11-21T06:37:48;11.80;;;9.45;;
21727;SDS011;11026;50.560;17.852;2023-11-21T06:40:17;27.55;;;14.20;;
21727;SDS011;11026;50.560;17.852;2023-11-21T06:42:48;14.02;;;9.63;;
21727;SDS011;11026;50.560;17.852;2023-11-21T06:45:18;11.95;;;8.90;;
21727;SDS011;11026;50.560;17.852;2023-11-21T06:47:47;18.92;;;12.65;;
21727;SDS011;11026;50.560;17.852;2023-11-21T06:50:15;12.07;;;9.43;;
21727;SDS011;11026;50.560;17.852;2023-11-21T06:52:42;11.70;;;8.90;;
21727;SDS011;11026;50.560;17.852;2023-11-21T06:57:42;13.00;;;10.30;;
21727;SDS011;11026;50.560;17.852;2023-11-21T07:00:10;17.40;;;9.35;;
21727;SDS011;11026;50.560;17.852;2023-11-21T07:02:38;16.05;;;9.10;;
21727;SDS011;11026;50.560;17.852;2023-11-21T07:05:08;14.82;;;8.50;;
21727;SDS011;11026;50.560;17.852;2023-11-21T07:07:35;11.75;;;7.50;;
21727;SDS011;11026;50.560;17.852;2023-11-21T07:10:04;12.30;;;7.95;;
21727;SDS011;11026;50.560;17.852;2023-11-21T07:12:32;12.80;;;8.13;;
21727;SDS011;11026;50.560;17.852;2023-11-21T07:20:06;13.57;;;9.25;;
21727;SDS011;11026;50.560;17.852;2023-11-21T07:22:34;14.25;;;9.55;;
21727;SDS011;11026;50.560;17.852;2023-11-21T07:25:01;18.60;;;10.15;;
21727;SDS011;11026;50.560;17.852;2023-11-21T07:27:28;16.27;;;9.80;;
21727;SDS011;11026;50.560;17.852;2023-11-21T07:29:55;13.88;;;10.07;;
21727;SDS011;11026;50.560;17.852;2023-11-21T07:32:22;15.52;;;10.45;;
21727;SDS011;11026;50.560;17.852;2023-11-21T07:34:49;15.80;;;10.20;;
21727;SDS011;11026;50.560;17.852;2023-11-21T07:37:17;17.23;;;10.23;;
21727;SDS011;11026;50.560;17.852;2023-11-21T07:39:47;16.67;;;9.48;;
21727;SDS011;11026;50.560;17.852;2023-11-21T07:42:14;12.63;;;10.00;;
21727;SDS011;11026;50.560;17.852;2023-11-21T07:44:42;14.73;;;9.95;;
21727;SDS011;11026;50.560;17.852;2023-11-21T07:49:40;14.25;;;9.48;;
21727;SDS011;11026;50.560;17.852;2023-11-21T07:52:11;14.20;;;9.60;;
21727;SDS011;11026;50.560;17.852;2023-11-21T07:54:39;16.23;;;8.70;;
21727;SDS011;11026;50.560;17.852;2023-11-21T07:57:07;12.80;;;8.68;;
21727;SDS011;11026;50.560;17.852;2023-11-21T07:59:36;13.68;;;9.00;;
21727;SDS011;11026;50.560;17.852;2023-11-21T08:02:03;13.60;;;7.72;;
21727;SDS011;11026;50.560;17.852;2023-11-21T08:04:33;9.98;;;7.40;;
21727;SDS011;11026;50.560;17.852;2023-11-21T08:07:02;15.07;;;7.43;;
21727;SDS011;11026;50.560;17.852;2023-11-21T08:09:32;11.95;;;7.20;;
21727;SDS011;11026;50.560;17.852;2023-11-21T08:12:01;16.20;;;6.97;;
21727;SDS011;11026;50.560;17.852;2023-11-21T08:14:30;13.45;;;7.10;;
21727;SDS011;11026;50.560;17.852;2023-11-21T08:16:57;10.95;;;6.85;;
21727;SDS011;11026;50.560;17.852;2023-11-21T08:19:26;9.80;;;7.07;;
21727;SDS011;11026;50.560;17.852;2023-11-21T08:21:55;11.77;;;6.35;;
21727;SDS011;11026;50.560;17.852;2023-11-21T08:24:22;9.70;;;6.45;;
21727;SDS011;11026;50.560;17.852;2023-11-21T08:29:21;12.23;;;6.47;;
21727;SDS011;11026;50.560;17.852;2023-11-21T08:34:18;9.18;;;6.38;;
21727;SDS011;11026;50.560;17.852;2023-11-21T08:36:45;8.27;;;6.75;;
21727;SDS011;11026;50.560;17.852;2023-11-21T08:39:12;10.25;;;6.07;;
21727;SDS011;11026;50.560;17.852;2023-11-21T08:44:08;8.32;;;5.82;;
21727;SDS011;11026;50.560;17.852;2023-11-21T08:46:35;8.88;;;6.32;;
21727;SDS011;11026;50.560;17.852;2023-11-21T08:49:03;10.10;;;5.88;;
21727;SDS011;11026;50.560;17.852;2023-11-21T08:51:30;6.78;;;5.22;;
21727;SDS011;11026;50.560;17.852;2023-11-21T08:53:58;8.10;;;5.45;;
21727;SDS011;11026;50.560;17.852;2023-11-21T08:56:27;9.82;;;5.40;;
21727;SDS011;11026;50.560;17.852;2023-11-21T09:01:25;8.35;;;5.25;;
21727;SDS011;11026;50.560;17.852;2023-11-21T09:03:52;6.18;;;4.20;;
21727;SDS011;11026;50.560;17.852;2023-11-21T09:06:19;6.82;;;3.65;;
21727;SDS011;11026;50.560;17.852;2023-11-21T09:08:47;6.95;;;3.90;;
21727;SDS011;11026;50.560;17.852;2023-11-21T09:11:14;8.50;;;3.72;;
21727;SDS011;11026;50.560;17.852;2023-11-21T09:13:41;5.28;;;2.75;;
21727;SDS011;11026;50.560;17.852;2023-11-21T09:16:08;6.18;;;3.85;;
21727;SDS011;11026;50.560;17.852;2023-11-21T09:18:37;5.22;;;3.38;;
21727;SDS011;11026;50.560;17.852;2023-11-21T09:21:05;8.55;;;3.58;;
21727;SDS011;11026;50.560;17.852;2023-11-21T09:23:32;6.90;;;5.05;;
21727;SDS011;11026;50.560;17.852;2023-11-21T09:25:59;6.05;;;4.28;;
21727;SDS011;11026;50.560;17.852;2023-11-21T09:28:28;8.45;;;6.32;;
21727;SDS011;11026;50.560;17.852;2023-11-21T09:30:55;11.93;;;9.02;;
21727;SDS011;11026;50.560;17.852;2023-11-21T09:33:22;10.18;;;9.20;;
21727;SDS011;11026;50.560;17.852;2023-11-21T09:35:51;7.45;;;5.38;;
21727;SDS011;11026;50.560;17.852;2023-11-21T09:38:19;7.57;;;4.45;;
21727;SDS011;11026;50.560;17.852;2023-11-21T09:40:46;7.93;;;4.68;;
21727;SDS011;11026;50.560;17.852;2023-11-21T09:43:16;8.13;;;5.03;;
21727;SDS011;11026;50.560;17.852;2023-11-21T09:45:46;11.60;;;7.05;;
21727;SDS011;11026;50.560;17.852;2023-11-21T09:48:15;7.38;;;5.50;;
21727;SDS011;11026;50.560;17.852;2023-11-21T09:50:43;8.77;;;4.63;;
21727;SDS011;11026;50.560;17.852;2023-11-21T09:53:13;11.23;;;5.65;;
21727;SDS011;11026;50.560;17.852;2023-11-21T09:55:50;8.05;;;5.18;;
21727;SDS011;11026;50.560;17.852;2023-11-21T09:58:19;7.88;;;5.00;;
21727;SDS011;11026;50.560;17.852;2023-11-21T10:00:50;6.85;;;4.85;;
21727;SDS011;11026;50.560;17.852;2023-11-21T10:03:21;8.45;;;7.15;;
21727;SDS011;11026;50.560;17.852;2023-11-21T10:05:48;41.67;;;38.00;;
21727;SDS011;11026;50.560;17.852;2023-11-21T10:08:17;8.30;;;4.60;;
21727;SDS011;11026;50.560;17.852;2023-11-21T10:10:49;7.55;;;4.70;;
21727;SDS011;11026;50.560;17.852;2023-11-21T10:13:19;10.57;;;4.32;;
21727;SDS011;11026;50.560;17.852;2023-11-21T10:15:51;8.10;;;4.78;;
21727;SDS011;11026;50.560;17.852;2023-11-21T10:18:20;9.73;;;4.45;;
21727;SDS011;11026;50.560;17.852;2023-11-21T10:20:52;7.07;;;4.50;;
21727;SDS011;11026;50.560;17.852;2023-11-21T10:23:23;4.35;;;3.65;;
21727;SDS011;11026;50.560;17.852;2023-11-21T10:25:52;6.32;;;3.90;;
21727;SDS011;11026;50.560;17.852;2023-11-21T10:28:22;8.48;;;3.75;;
21727;SDS011;11026;50.560;17.852;2023-11-21T10:30:51;6.10;;;3.97;;
21727;SDS011;11026;50.560;17.852;2023-11-21T10:33:21;7.95;;;4.18;;
21727;SDS011;11026;50.560;17.852;2023-11-21T10:35:56;6.60;;;3.90;;
21727;SDS011;11026;50.560;17.852;2023-11-21T10:38:23;6.03;;;4.20;;
21727;SDS011;11026;50.560;17.852;2023-11-21T10:40:51;6.93;;;3.80;;
21727;SDS011;11026;50.560;17.852;2023-11-21T10:43:19;5.60;;;3.90;;
21727;SDS011;11026;50.560;17.852;2023-11-21T10:45:47;7.85;;;6.65;;
21727;SDS011;11026;50.560;17.852;2023-11-21T10:48:15;6.35;;;4.70;;
21727;SDS011;11026;50.560;17.852;2023-11-21T10:50:47;11.27;;;7.00;;
21727;SDS011;11026;50.560;17.852;2023-11-21T10:53:16;8.80;;;4.63;;
21727;SDS011;11026;50.560;17.852;2023-11-21T10:55:44;8.15;;;4.63;;
21727;SDS011;11026;50.560;17.852;2023-11-21T10:58:13;7.93;;;4.57;;
21727;SDS011;11026;50.560;17.852;2023-11-21T11:00:41;8.18;;;4.72;;
21727;SDS011;11026;50.560;17.852;2023-11-21T11:03:12;8.70;;;4.70;;
21727;SDS011;11026;50.560;17.852;2023-11-21T11:05:43;6.75;;;4.93;;
21727;SDS011;11026;50.560;17.852;2023-11-21T11:08:20;9.43;;;5.28;;
21727;SDS011;11026;50.560;17.852;2023-11-21T11:10:54;8.70;;;4.43;;
21727;SDS011;11026;50.560;17.852;2023-11-21T11:13:22;9.00;;;4.18;;
21727;SDS011;11026;50.560;17.852;2023-11-21T11:15:51;8.50;;;4.38;;
21727;SDS011;11026;50.560;17.852;2023-11-21T11:18:29;9.70;;;4.30;;
21727;SDS011;11026;50.560;17.852;2023-11-21T11:23:59;6.68;;;4.25;;
21727;SDS011;11026;50.560;17.852;2023-11-21T11:29:23;7.20;;;4.05;;
21727;SDS011;11026;50.560;17.852;2023-11-21T11:32:21;8.60;;;4.47;;
21727;SDS011;11026;50.560;17.852;2023-11-21T11:35:07;8.05;;;4.30;;
21727;SDS011;11026;50.560;17.852;2023-11-21T11:37:44;11.25;;;4.50;;
21727;SDS011;11026;50.560;17.852;2023-11-21T11:40:13;10.57;;;4.47;;
21727;SDS011;11026;50.560;17.852;2023-11-21T11:43:05;9.50;;;4.63;;
21727;SDS011;11026;50.560;17.852;2023-11-21T11:45:33;7.63;;;4.93;;
21727;SDS011;11026;50.560;17.852;2023-11-21T11:48:05;11.77;;;4.63;;
21727;SDS011;11026;50.560;17.852;2023-11-21T11:53:13;9.57;;;4.53;;
21727;SDS011;11026;50.560;17.852;2023-11-21T11:55:42;8.73;;;4.82;;
21727;SDS011;11026;50.560;17.852;2023-11-21T11:58:10;8.50;;;4.75;;
21727;SDS011;11026;50.560;17.852;2023-11-21T12:00:38;7.65;;;4.93;;
21727;SDS011;11026;50.560;17.852;2023-11-21T12:03:08;10.68;;;5.32;;
21727;SDS011;11026;50.560;17.852;2023-11-21T12:05:36;11.40;;;5.30;;
21727;SDS011;11026;50.560;17.852;2023-11-21T12:08:08;13.07;;;8.38;;
21727;SDS011;11026;50.560;17.852;2023-11-21T12:10:37;9.68;;;6.10;;
21727;SDS011;11026;50.560;17.852;2023-11-21T12:13:07;7.82;;;5.95;;
21727;SDS011;11026;50.560;17.852;2023-11-21T12:15:39;9.98;;;5.82;;
21727;SDS011;11026;50.560;17.852;2023-11-21T12:20:40;17.95;;;11.07;;
21727;SDS011;11026;50.560;17.852;2023-11-21T12:23:10;25.95;;;23.25;;
21727;SDS011;11026;50.560;17.852;2023-11-21T12:25:38;14.68;;;7.50;;
21727;SDS011;11026;50.560;17.852;2023-11-21T12:28:09;9.48;;;7.55;;
21727;SDS011;11026;50.560;17.852;2023-11-21T12:30:37;12.23;;;8.98;;
21727;SDS011;11026;50.560;17.852;2023-11-21T12:33:07;16.02;;;8.10;;
21727;SDS011;11026;50.560;17.852;2023-11-21T12:35:36;27.45;;;17.02;;
21727;SDS011;11026;50.560;17.852;2023-11-21T12:38:04;49.08;;;29.52;;
21727;SDS011;11026;50.560;17.852;2023-11-21T12:40:32;41.70;;;37.83;;
21727;SDS011;11026;50.560;17.852;2023-11-21T12:43:01;15.57;;;8.77;;
21727;SDS011;11026;50.560;17.852;2023-11-21T12:45:31;16.50;;;9.82;;
21727;SDS011;11026;50.560;17.852;2023-11-21T12:48:02;10.13;;;8.10;;
21727;SDS011;11026;50.560;17.852;2023-11-21T12:50:35;14.18;;;10.48;;
21727;SDS011;11026;50.560;17.852;2023-11-21T12:55:37;11.93;;;8.50;;
21727;SDS011;11026;50.560;17.852;2023-11-21T12:58:06;14.05;;;9.77;;
21727;SDS011;11026;50.560;17.852;2023-11-21T13:00:42;14.48;;;9.65;;
21727;SDS011;11026;50.560;17.852;2023-11-21T13:03:12;13.70;;;10.15;;
21727;SDS011;11026;50.560;17.852;2023-11-21T13:05:47;16.63;;;10.35;;
21727;SDS011;11026;50.560;17.852;2023-11-21T13:10:55;14.35;;;10.65;;
21727;SDS011;11026;50.560;17.852;2023-11-21T13:13:25;15.90;;;11.23;;
21727;SDS011;11026;50.560;17.852;2023-11-21T13:18:24;18.70;;;13.30;;
21727;SDS011;11026;50.560;17.852;2023-11-21T13:20:54;16.17;;;11.80;;
21727;SDS011;11026;50.560;17.852;2023-11-21T13:23:26;9.75;;;8.30;;
21727;SDS011;11026;50.560;17.852;2023-11-21T13:25:53;10.98;;;8.77;;
21727;SDS011;11026;50.560;17.852;2023-11-21T13:28:31;12.50;;;10.43;;
21727;SDS011;11026;50.560;17.852;2023-11-21T13:31:00;19.45;;;15.18;;
21727;SDS011;11026;50.560;17.852;2023-11-21T13:33:38;18.45;;;13.60;;
21727;SDS011;11026;50.560;17.852;2023-11-21T13:36:08;16.95;;;12.55;;
21727;SDS011;11026;50.560;17.852;2023-11-21T13:38:37;15.60;;;12.27;;
21727;SDS011;11026;50.560;17.852;2023-11-21T13:43:41;25.98;;;18.77;;
21727;SDS011;11026;50.560;17.852;2023-11-21T13:46:13;23.60;;;17.15;;
21727;SDS011;11026;50.560;17.852;2023-11-21T13:48:44;36.22;;;21.42;;
21727;SDS011;11026;50.560;17.852;2023-11-21T13:51:19;22.23;;;15.52;;
21727;SDS011;11026;50.560;17.852;2023-11-21T13:53:48;20.02;;;14.15;;
21727;SDS011;11026;50.560;17.852;2023-11-21T13:56:17;21.58;;;16.33;;
21727;SDS011;11026;50.560;17.852;2023-11-21T13:59:04;22.27;;;16.00;;
21727;SDS011;11026;50.560;17.852;2023-11-21T14:01:46;20.25;;;15.50;;
21727;SDS011;11026;50.560;17.852;2023-11-21T14:04:24;20.27;;;16.75;;
21727;SDS011;11026;50.560;17.852;2023-11-21T14:07:06;21.63;;;17.67;;
21727;SDS011;11026;50.560;17.852;2023-11-21T14:09:47;24.08;;;18.52;;
21727;SDS011;11026;50.560;17.852;2023-11-21T14:12:16;22.20;;;17.38;;
21727;SDS011;11026;50.560;17.852;2023-11-21T14:14:43;24.80;;;18.50;;
21727;SDS011;11026;50.560;17.852;2023-11-21T14:17:12;23.25;;;18.00;;
21727;SDS011;11026;50.560;17.852;2023-11-21T14:19:39;27.58;;;19.55;;
21727;SDS011;11026;50.560;17.852;2023-11-21T14:22:12;25.42;;;19.50;;
21727;SDS011;11026;50.560;17.852;2023-11-21T14:24:41;30.77;;;21.48;;
21727;SDS011;11026;50.560;17.852;2023-11-21T14:27:14;29.13;;;21.42;;
21727;SDS011;11026;50.560;17.852;2023-11-21T14:29:43;29.45;;;21.70;;
21727;SDS011;11026;50.560;17.852;2023-11-21T14:32:11;30.63;;;20.98;;
21727;SDS011;11026;50.560;17.852;2023-11-21T14:34:39;31.00;;;21.73;;
21727;SDS011;11026;50.560;17.852;2023-11-21T14:37:07;31.60;;;22.70;;
21727;SDS011;11026;50.560;17.852;2023-11-21T14:39:35;35.92;;;24.25;;
21727;SDS011;11026;50.560;17.852;2023-11-21T14:42:07;33.50;;;24.83;;
21727;SDS011;11026;50.560;17.852;2023-11-21T14:44:34;39.00;;;25.42;;
21727;SDS011;11026;50.560;17.852;2023-11-21T14:47:05;44.95;;;29.98;;
21727;SDS011;11026;50.560;17.852;2023-11-21T14:49:42;45.53;;;31.80;;
21727;SDS011;11026;50.560;17.852;2023-11-21T14:52:20;34.15;;;23.92;;
21727;SDS011;11026;50.560;17.852;2023-11-21T14:55:03;28.58;;;19.73;;
21727;SDS011;11026;50.560;17.852;2023-11-21T14:57:46;28.77;;;20.27;;
21727;SDS011;11026;50.560;17.852;2023-11-21T15:00:17;30.02;;;21.85;;
21727;SDS011;11026;50.560;17.852;2023-11-21T15:03:00;29.58;;;22.50;;
21727;SDS011;11026;50.560;17.852;2023-11-21T15:05:28;35.58;;;25.83;;
21727;SDS011;11026;50.560;17.852;2023-11-21T15:07:56;29.02;;;21.73;;
21727;SDS011;11026;50.560;17.852;2023-11-21T15:10:35;29.45;;;21.42;;
21727;SDS011;11026;50.560;17.852;2023-11-21T15:13:16;38.45;;;26.17;;
21727;SDS011;11026;50.560;17.852;2023-11-21T15:15:44;26.65;;;20.63;;
21727;SDS011;11026;50.560;17.852;2023-11-21T15:18:11;54.97;;;33.35;;
21727;SDS011;11026;50.560;17.852;2023-11-21T15:20:42;37.92;;;25.10;;
21727;SDS011;11026;50.560;17.852;2023-11-21T15:23:11;31.30;;;21.30;;
21727;SDS011;11026;50.560;17.852;2023-11-21T15:25:44;31.48;;;21.15;;
21727;SDS011;11026;50.560;17.852;2023-11-21T15:28:14;29.00;;;21.40;;
21727;SDS011;11026;50.560;17.852;2023-11-21T15:30:41;33.42;;;25.33;;
21727;SDS011;11026;50.560;17.852;2023-11-21T15:33:08;37.60;;;27.92;;
21727;SDS011;11026;50.560;17.852;2023-11-21T15:35:36;39.42;;;29.42;;
21727;SDS011;11026;50.560;17.852;2023-11-21T15:38:05;43.58;;;33.55;;
21727;SDS011;11026;50.560;17.852;2023-11-21T15:43:05;57.92;;;40.20;;
21727;SDS011;11026;50.560;17.852;2023-11-21T15:45:33;31.63;;;26.38;;
21727;SDS011;11026;50.560;17.852;2023-11-21T15:48:00;32.40;;;25.25;;
21727;SDS011;11026;50.560;17.852;2023-11-21T15:50:30;36.83;;;31.27;;
21727;SDS011;11026;50.560;17.852;2023-11-21T15:52:59;31.60;;;26.88;;
21727;SDS011;11026;50.560;17.852;2023-11-21T15:55:26;25.73;;;20.20;;